Terminal Aerodrome Forecast
Issued by NWS Jacksonville, FL

Home | Current Version | Previous Version | Text Only | Print | Product List | Glossary On
Versions: 1 2 3 4 5 6 7 8 9 10 11 12 13 14 15 16 17 18 19 20 21 22 23 24 25
000
FTUS42 KJAX 230000 AAB
TAFGNV
TAF AMD
KGNV 230051Z 2301/2324 VRB03KT P6SM SCT040 BKN250
      TEMPO 2307/2311 3SM BR
     FM231500 26004KT P6SM VCSH SCT025
     FM231900 22008KT P6SM VCTS BKN040CB=

USA.gov is the U.S. government's official web portal to all federal, state and local government web resources and services.